Aérodrome :
LOGIN :

S'inscrire | Disclaimer

   EN    FR    IT 

 










Légende :    VFR   VFR Marginal   IFR   IFR Intensif   IFR Très Intensif
Visi : 
Plafond : 
>= 8 km
>= 3000ft
5 à 8 km
1000 à 3000 ft
1500m à 5 km
500 à 1000 ft
800 à 1500m
200 à 500 ft
< 800m
< 200 ft
Symboles :   Orages  Brouillard  Fortes neiges  Fortes précipitations  Vent > 20 kt
SIGMETs :   Divers  Orages  Givrage  Turbulence  Onde Orograph.  Cendres Volcan.






- Altitude de l'aérodrome : 1017 ft


LFSL - Brive Souillac

DERNIER METAR :
  • 101100Z AUTO 16009KT 110V210 9999 FEW024 BKN052 OVC064 14/08 Q1013 TEMPO SCT030TCU BKN040

METARs EXPIRÉS :
  • 101030Z AUTO 15009KT 120V200 9999 SCT023 OVC050 13/08 Q1014 TEMPO SCT030TCU BKN040
  • 101000Z AUTO 15006KT 100V200 CAVOK 12/08 Q1014 TEMPO SCT030TCU BKN040
  • 100930Z AUTO 15008KT 110V200 9999 -RA NSC 12/08 Q1014 TEMPO SCT030TCU BKN040
  • 100900Z AUTO 16008KT 110V200 CAVOK 12/07 Q1014 TEMPO SCT030TCU BKN040
  • 100830Z AUTO 16009KT 130V200 CAVOK 12/07 Q1014 NOSIG

TAF TAF LFSL
Valide du 10 à 09h jusqu'au 10 à 18h UTC


100800Z 1009/1018 16010KT CAVOK
TEMPO 1009/1018 -SHRA SCT030TCU BKN040
PROB40
TEMPO 1016/1018 SHRA FEW030CB BKN035TCU



MET'MAP, la Météo Aéronautique d'un coup d'oeil ! - Copyright ORBIFLY Décembre 2007 - Disclaimer

ORBIFLY MET'MAP TEAM :

Programmation & Développement : Alexandra Zaïnal
Sur une idée originale de : Baudouin d'Aumeries
Assistance à la programmation : Marc-Olivier Méhu
Soutien technique & logistique : Manuel Goepfert

Contact : metmap@orbifly.com




SOURCES & CREDITS :

   NOAA